Time;durP1;ratioP1;P1;durP2;ratioP2;P2;SDS_P1;SDS_P2;PMS_P1;PMS_P2;Temp;Humidity;BMP_temperature;BMP_pressure;BME280_temperature;BME280_humidity;BME280_pressure;Samples;Min_cycle;Max_cycle;Signal;HPM_P1;HPM_P2
2022/08/08 00:02:08;;;;;;;7.93;5.87;;;16.30;94.20;;;;;;4978041;28;20437;-75
2022/08/08 00:05:02;;;;;;;6.90;5.57;;;16.20;94.20;;;;;;4994598;28;20523;-75
2022/08/08 00:07:44;;;;;;;5.40;4.80;;;16.20;94.20;;;;;;4994582;28;20395;-75
2022/08/08 00:10:17;;;;;;;7.70;5.83;;;16.20;94.30;;;;;;4977133;28;20786;-74
2022/08/08 00:13:05;;;;;;;6.10;5.50;;;16.10;94.40;;;;;;4994330;28;20913;-75
2022/08/08 00:15:41;;;;;;;6.67;6.07;;;16.10;94.50;;;;;;4976746;28;20567;-75
2022/08/08 00:18:35;;;;;;;7.63;6.87;;;16.10;94.60;;;;;;4994427;28;20396;-75
2022/08/08 00:21:05;;;;;;;6.40;5.80;;;16.00;94.70;;;;;;4994438;28;20428;-75
2022/08/08 00:23:40;;;;;;;6.60;5.90;;;16.10;94.80;;;;;;4994369;28;20483;-75
2022/08/08 00:26:19;;;;;;;6.87;6.20;;;16.00;94.80;;;;;;4994597;28;20440;-74
2022/08/08 00:29:02;;;;;;;7.80;7.10;;;16.00;94.80;;;;;;4994235;28;20486;-75
2022/08/08 00:31:40;;;;;;;7.43;6.70;;;15.90;94.80;;;;;;4994180;28;20407;-75
2022/08/08 00:35:11;;;;;;;10.60;9.50;;;15.90;94.80;;;;;;4976485;28;20450;-74
2022/08/08 00:38:00;;;;;;;7.60;6.87;;;15.90;94.90;;;;;;4994157;28;20460;-74
2022/08/08 00:40:59;;;;;;;8.37;7.67;;;15.90;94.90;;;;;;4993786;28;20437;-75
2022/08/08 00:44:07;;;;;;;8.50;7.70;;;15.80;95.00;;;;;;4994044;28;20425;-75
2022/08/08 00:47:24;;;;;;;8.53;7.10;;;15.80;95.00;;;;;;4976562;28;20460;-75
2022/08/08 00:50:52;;;;;;;6.67;6.07;;;15.70;95.10;;;;;;4976346;28;20485;-75
2022/08/08 00:53:44;;;;;;;6.83;6.13;;;15.70;95.10;;;;;;4992509;28;20429;-75
2022/08/08 00:57:20;;;;;;;7.97;6.33;;;15.70;95.10;;;;;;4976349;28;20408;-75
2022/08/08 01:00:08;;;;;;;6.20;5.60;;;15.60;95.10;;;;;;4992451;28;20514;-75
2022/08/08 01:03:12;;;;;;;7.40;6.70;;;15.60;95.10;;;;;;4976215;28;20473;-75
2022/08/08 01:06:44;;;;;;;6.83;6.13;;;15.60;95.20;;;;;;4992553;28;20491;-75
2022/08/08 01:09:53;;;;;;;6.60;5.97;;;15.50;95.30;;;;;;4984765;28;20427;-75
2022/08/08 01:13:04;;;;;;;6.00;5.50;;;15.50;95.30;;;;;;4976331;28;20794;-75
2022/08/08 01:15:59;;;;;;;6.60;5.90;;;15.50;95.40;;;;;;4976597;28;20443;-75
2022/08/08 01:19:08;;;;;;;6.77;5.80;;;15.40;95.40;;;;;;4976133;28;20495;-75
2022/08/08 01:22:30;;;;;;;5.80;5.13;;;15.40;95.50;;;;;;4953967;28;20994;-75
2022/08/08 01:25:45;;;;;;;6.90;6.27;;;15.30;95.50;;;;;;4975998;28;20841;-75
2022/08/08 01:28:41;;;;;;;6.37;5.77;;;15.30;95.60;;;;;;4977150;28;20441;-75
2022/08/08 01:31:59;;;;;;;5.87;5.37;;;15.30;95.70;;;;;;4976062;28;20415;-75
2022/08/08 01:35:38;;;;;;;6.80;6.10;;;15.30;95.80;;;;;;4917911;28;20564;-75
2022/08/08 01:38:52;;;;;;;6.33;5.70;;;15.20;95.80;;;;;;4976090;28;20939;-75
2022/08/08 01:41:31;;;;;;;8.30;6.07;;;15.20;95.90;;;;;;4972042;28;20445;-75
2022/08/08 01:44:20;;;;;;;5.53;5.03;;;15.10;95.90;;;;;;4991948;28;20414;-75
2022/08/08 01:47:03;;;;;;;6.43;5.83;;;15.10;96.10;;;;;;4975747;28;20450;-75
2022/08/08 01:50:04;;;;;;;7.57;6.43;;;15.10;96.10;;;;;;4993169;28;20415;-75
2022/08/08 01:52:46;;;;;;;7.00;6.30;;;15.10;96.30;;;;;;4994764;28;20448;-75
2022/08/08 01:55:46;;;;;;;6.83;5.40;;;15.00;96.40;;;;;;4996776;28;20539;-75
2022/08/08 01:58:44;;;;;;;6.70;6.00;;;15.00;96.50;;;;;;4979208;28;20433;-75
2022/08/08 02:01:35;;;;;;;9.00;6.47;;;14.90;96.50;;;;;;4979090;28;20411;-75
2022/08/08 02:04:32;;;;;;;7.40;6.37;;;14.90;96.70;;;;;;4979390;28;20505;-75
2022/08/08 02:07:07;;;;;;;6.70;6.00;;;14.90;96.90;;;;;;4995150;28;20461;-75
2022/08/08 02:10:03;;;;;;;7.60;6.90;;;14.80;96.90;;;;;;4978998;28;20527;-75
2022/08/08 02:12:53;;;;;;;7.07;6.37;;;14.80;97.10;;;;;;4979156;28;20440;-75
2022/08/08 02:15:33;;;;;;;6.90;6.20;;;14.70;97.30;;;;;;4978958;28;20501;-75
2022/08/08 02:18:12;;;;;;;8.57;7.40;;;14.70;97.40;;;;;;4996296;28;20421;-75
2022/08/08 02:22:30;;;;;;;6.67;6.07;;;14.60;97.60;;;;;;4978702;28;20824;-75
2022/08/08 02:23:46;;;;;;;7.23;6.50;;;14.60;97.70;;;;;;4979005;28;20464;-75
2022/08/08 02:26:21;;;;;;;8.07;6.77;;;14.60;97.90;;;;;;4978642;28;20482;-75
2022/08/08 02:29:06;;;;;;;7.80;6.70;;;14.60;98.00;;;;;;4978649;28;20411;-75
2022/08/08 02:32:05;;;;;;;7.90;7.20;;;14.60;98.20;;;;;;4978666;28;20479;-75
2022/08/08 02:35:19;;;;;;;8.53;7.10;;;14.60;98.30;;;;;;4978966;28;20465;-74
2022/08/08 02:38:36;;;;;;;7.37;6.67;;;14.50;98.30;;;;;;4952281;28;20532;-75
2022/08/08 02:41:58;;;;;;;6.77;6.17;;;14.50;98.40;;;;;;4978777;28;20527;-75
2022/08/08 02:45:03;;;;;;;9.27;8.27;;;14.50;98.50;;;;;;4900895;29;20485;-74
2022/08/08 02:48:14;;;;;;;8.50;7.37;;;14.50;98.60;;;;;;4881537;29;21030;-74
2022/08/08 02:51:26;;;;;;;8.30;7.30;;;14.50;98.70;;;;;;4979438;28;20444;-75
2022/08/08 02:54:32;;;;;;;6.97;6.20;;;14.50;98.70;;;;;;4978304;28;20453;-75
2022/08/08 02:57:33;;;;;;;8.50;6.80;;;14.50;98.70;;;;;;4979013;28;20419;-75
2022/08/08 03:00:31;;;;;;;7.67;6.83;;;14.40;98.70;;;;;;4950772;28;20540;-75
2022/08/08 03:03:41;;;;;;;7.40;6.70;;;14.40;98.70;;;;;;4977822;28;20495;-75
2022/08/08 03:07:09;;;;;;;7.80;7.10;;;14.40;98.70;;;;;;4977803;28;20452;-74
2022/08/08 03:10:09;;;;;;;7.63;7.00;;;14.40;98.80;;;;;;4995608;28;20512;-75
2022/08/08 03:13:32;;;;;;;7.47;6.77;;;14.30;98.80;;;;;;4995337;28;20443;-75
2022/08/08 03:16:38;;;;;;;8.23;7.43;;;14.30;98.90;;;;;;4977827;28;20886;-75
2022/08/08 03:19:28;;;;;;;7.57;6.87;;;14.30;98.90;;;;;;4977690;28;20445;-75
2022/08/08 03:21:56;;;;;;;7.13;6.43;;;14.30;99.00;;;;;;4977356;28;20466;-75
2022/08/08 03:24:30;;;;;;;7.40;6.70;;;14.30;99.00;;;;;;4977775;28;20523;-75
2022/08/08 03:27:09;;;;;;;8.07;7.00;;;14.30;99.10;;;;;;4978042;28;20472;-74
2022/08/08 03:29:46;;;;;;;6.90;6.30;;;14.20;99.10;;;;;;4977781;28;20823;-75
2022/08/08 03:35:28;;;;;;;20.13;7.87;;;14.20;99.20;;;;;;4977505;28;20472;-75
2022/08/08 03:38:02;;;;;;;7.50;6.53;;;14.20;99.20;;;;;;4977781;28;20456;-75
2022/08/08 03:40:55;;;;;;;8.27;7.40;;;14.20;99.30;;;;;;4977720;28;20431;-75
2022/08/08 03:43:27;;;;;;;9.90;7.67;;;14.10;99.40;;;;;;4978959;28;20453;-75
2022/08/08 03:46:05;;;;;;;8.70;7.90;;;14.10;99.40;;;;;;4981837;28;20480;-74
2022/08/08 03:48:39;;;;;;;9.80;8.80;;;14.10;99.50;;;;;;4980923;28;20564;-74
2022/08/08 03:51:35;;;;;;;9.80;8.20;;;14.10;99.60;;;;;;4983111;28;20874;-75
2022/08/08 03:54:21;;;;;;;9.80;8.80;;;14.00;99.70;;;;;;4980498;28;20508;-75
2022/08/08 03:57:15;;;;;;;9.10;8.30;;;14.00;99.80;;;;;;4982686;28;20449;-74
2022/08/08 04:00:09;;;;;;;13.10;9.23;;;13.90;99.90;;;;;;4985008;28;20448;-75
2022/08/08 04:02:57;;;;;;;9.27;8.37;;;13.90;99.90;;;;;;4985072;28;20507;-74
2022/08/08 04:05:29;;;;;;;9.17;8.10;;;13.90;99.90;;;;;;4996136;28;20500;-74
2022/08/08 04:08:07;;;;;;;10.30;9.40;;;13.90;99.90;;;;;;4977239;28;20472;-74
2022/08/08 04:10:37;;;;;;;11.87;10.70;;;13.90;99.90;;;;;;4994774;28;20510;-75
2022/08/08 04:13:09;;;;;;;11.23;10.13;;;13.80;99.90;;;;;;4976850;28;20448;-74
2022/08/08 04:15:49;;;;;;;10.57;9.67;;;13.80;99.90;;;;;;4976524;28;20563;-75
2022/08/08 04:18:35;;;;;;;10.40;9.40;;;13.80;99.90;;;;;;4976910;28;20437;-74
2022/08/08 04:21:12;;;;;;;12.50;11.30;;;13.90;99.90;;;;;;4977136;28;20441;-75
2022/08/08 04:23:47;;;;;;;12.50;10.83;;;13.80;99.90;;;;;;4977006;28;20448;-74
2022/08/08 04:26:36;;;;;;;13.20;12.00;;;13.80;99.90;;;;;;4976754;28;20620;-75
2022/08/08 04:29:25;;;;;;;13.77;11.47;;;13.80;99.90;;;;;;4976572;28;20488;-74
2022/08/08 04:31:54;;;;;;;13.37;12.17;;;13.80;99.90;;;;;;4976724;28;20444;-75
2022/08/08 04:34:28;;;;;;;14.53;13.10;;;13.80;99.90;;;;;;4977085;28;20564;-75
2022/08/08 04:37:16;;;;;;;14.40;13.07;;;13.80;99.90;;;;;;4978111;28;20445;-75
2022/08/08 04:39:44;;;;;;;15.40;13.90;;;13.80;99.90;;;;;;4977925;28;20601;-75
2022/08/08 04:42:36;;;;;;;13.50;12.17;;;13.80;99.90;;;;;;4994038;28;20932;-75
2022/08/08 04:45:26;;;;;;;14.43;13.10;;;13.80;99.90;;;;;;4976637;28;20500;-75
2022/08/08 04:47:58;;;;;;;15.93;13.80;;;13.80;99.90;;;;;;4976373;28;20989;-75
2022/08/08 04:50:30;;;;;;;14.57;13.27;;;13.80;99.90;;;;;;4977305;28;20448;-75
2022/08/08 04:53:08;;;;;;;14.97;13.57;;;13.80;99.90;;;;;;4976843;28;20452;-75
2022/08/08 04:55:58;;;;;;;13.87;12.67;;;13.90;99.90;;;;;;4976259;28;21078;-75
2022/08/08 04:58:31;;;;;;;13.70;12.40;;;13.90;99.90;;;;;;4976426;28;20449;-75
2022/08/08 05:01:02;;;;;;;15.00;13.70;;;13.90;99.90;;;;;;4976477;28;20436;-75
2022/08/08 05:03:41;;;;;;;14.90;13.50;;;13.90;99.90;;;;;;4976549;28;20444;-75
2022/08/08 05:06:34;;;;;;;14.93;13.60;;;13.90;99.90;;;;;;4976673;28;20434;-75
2022/08/08 05:09:07;;;;;;;13.73;12.23;;;14.00;99.90;;;;;;4977134;28;20464;-75
2022/08/08 05:11:38;;;;;;;15.10;13.70;;;14.00;99.90;;;;;;4976823;28;20917;-75
2022/08/08 05:14:11;;;;;;;14.60;13.20;;;14.00;99.90;;;;;;4976333;28;20444;-75
2022/08/08 05:16:47;;;;;;;14.40;12.90;;;14.00;99.90;;;;;;4993748;28;20428;-75
2022/08/08 05:19:29;;;;;;;14.27;12.87;;;14.00;99.90;;;;;;4976192;28;20946;-75
2022/08/08 05:22:20;;;;;;;14.40;12.63;;;14.10;99.90;;;;;;4976246;28;20480;-75
2022/08/08 05:24:50;;;;;;;14.47;13.17;;;14.10;99.90;;;;;;4976036;28;20838;-75
2022/08/08 05:27:21;;;;;;;15.07;13.57;;;14.10;99.90;;;;;;4977160;28;20532;-75
2022/08/08 05:29:52;;;;;;;13.90;11.70;;;14.10;99.90;;;;;;4979974;28;20461;-75
2022/08/08 05:32:26;;;;;;;13.23;11.93;;;14.20;99.90;;;;;;4979817;28;20498;-75
2022/08/08 05:35:01;;;;;;;14.03;12.67;;;14.30;99.90;;;;;;4979777;28;20468;-75
2022/08/08 05:37:40;;;;;;;13.47;12.30;;;14.30;99.90;;;;;;4979816;28;20411;-75
2022/08/08 05:40:24;;;;;;;13.10;11.70;;;14.30;99.90;;;;;;4980027;28;20449;-75
2022/08/08 05:43:03;;;;;;;13.47;12.20;;;14.30;99.90;;;;;;4997466;28;20420;-75
2022/08/08 05:45:56;;;;;;;15.53;12.90;;;14.40;99.90;;;;;;4979523;28;20500;-75
2022/08/08 05:48:39;;;;;;;13.67;12.23;;;14.50;99.90;;;;;;4979574;28;20475;-75
2022/08/08 05:51:12;;;;;;;11.90;10.90;;;14.50;99.90;;;;;;4979439;28;20444;-75
2022/08/08 05:53:50;;;;;;;14.10;11.73;;;14.60;99.90;;;;;;4979339;28;20437;-75
2022/08/08 05:56:43;;;;;;;12.57;11.37;;;14.70;99.90;;;;;;4979497;28;20441;-75
2022/08/08 05:59:24;;;;;;;12.97;11.60;;;14.80;99.90;;;;;;4979581;28;20444;-75
2022/08/08 06:05:10;;;;;;;17.60;12.43;;;15.20;99.90;;;;;;4959033;28;20571;-75
2022/08/08 06:08:00;;;;;;;13.70;11.53;;;15.50;99.90;;;;;;4980832;28;20434;-75
2022/08/08 06:10:39;;;;;;;10.90;9.77;;;15.80;99.90;;;;;;4979568;28;20468;-75
2022/08/08 06:13:10;;;;;;;13.10;11.70;;;16.10;99.90;;;;;;4980157;28;20423;-75
2022/08/08 06:15:42;;;;;;;11.37;9.60;;;16.40;99.90;;;;;;4979280;28;21003;-75
2022/08/08 06:18:28;;;;;;;10.10;9.10;;;16.70;99.90;;;;;;4979002;28;20457;-75
2022/08/08 06:21:00;;;;;;;12.00;9.20;;;17.00;99.90;;;;;;4979424;28;20437;-75
2022/08/08 06:23:40;;;;;;;10.73;9.70;;;17.30;99.90;;;;;;4979102;28;20451;-75
2022/08/08 06:26:36;;;;;;;12.20;9.67;;;17.60;99.90;;;;;;4979037;28;20532;-75
2022/08/08 06:29:16;;;;;;;11.20;8.93;;;17.90;99.90;;;;;;4979189;28;20899;-75
2022/08/08 06:32:13;;;;;;;10.03;9.10;;;18.10;99.90;;;;;;4980107;28;20489;-75
2022/08/08 06:34:52;;;;;;;9.33;8.40;;;18.30;99.90;;;;;;4978910;28;20476;-76
2022/08/08 06:37:48;;;;;;;8.50;7.70;;;18.40;99.90;;;;;;4978770;28;20445;-75
2022/08/08 06:40:28;;;;;;;9.27;8.47;;;18.40;99.90;;;;;;4978687;28;20946;-75
2022/08/08 06:43:06;;;;;;;8.50;7.60;;;18.50;99.90;;;;;;4978982;28;20463;-76
2022/08/08 06:45:57;;;;;;;8.30;7.50;;;18.60;99.90;;;;;;4995459;28;20548;-75
2022/08/08 06:48:26;;;;;;;7.83;7.03;;;18.70;99.90;;;;;;4995813;28;20518;-76
2022/08/08 06:50:58;;;;;;;7.50;6.70;;;18.80;99.90;;;;;;4979027;28;20537;-76
2022/08/08 06:53:37;;;;;;;7.33;6.43;;;18.80;99.90;;;;;;4996131;28;20767;-76
2022/08/08 06:56:08;;;;;;;8.50;7.70;;;18.90;99.90;;;;;;4978229;28;20887;-76
2022/08/08 06:58:37;;;;;;;8.90;6.70;;;19.00;99.90;;;;;;4978619;28;20449;-76
2022/08/08 07:01:12;;;;;;;6.73;6.00;;;19.20;99.90;;;;;;4978395;28;20958;-76
2022/08/08 07:04:09;;;;;;;7.03;6.33;;;19.30;99.90;;;;;;4978219;28;20854;-76
2022/08/08 07:07:01;;;;;;;9.87;7.03;;;19.50;99.90;;;;;;4978294;28;20454;-76
2022/08/08 07:09:55;;;;;;;7.30;5.73;;;19.60;99.90;;;;;;4978064;28;20491;-76
2022/08/08 07:12:41;;;;;;;8.63;5.70;;;19.80;99.90;;;;;;4994394;28;20476;-76
2022/08/08 07:15:14;;;;;;;7.80;6.07;;;19.90;99.90;;;;;;4978365;28;20500;-76
2022/08/08 07:18:05;;;;;;;7.43;5.63;;;20.10;99.90;;;;;;4978373;28;20552;-76
2022/08/08 07:21:01;;;;;;;5.70;4.30;;;20.20;99.90;;;;;;4978169;28;20436;-76
2022/08/08 07:23:41;;;;;;;9.30;4.43;;;20.50;99.90;;;;;;4978231;28;20499;-76
2022/08/08 07:26:34;;;;;;;6.10;3.80;;;20.60;99.90;;;;;;4978615;28;20479;-76
2022/08/08 07:29:06;;;;;;;5.13;4.20;;;20.80;99.90;;;;;;4994489;28;20518;-76
2022/08/08 07:31:41;;;;;;;4.43;2.77;;;20.90;99.90;;;;;;4977952;28;20847;-76
2022/08/08 07:34:11;;;;;;;5.63;3.07;;;21.00;99.90;;;;;;4977582;28;20456;-77
2022/08/08 07:37:01;;;;;;;5.13;3.43;;;21.20;99.90;;;;;;4977991;28;20444;-76
2022/08/08 07:39:42;;;;;;;7.17;4.80;;;21.40;99.90;;;;;;4977582;28;20444;-76
2022/08/08 07:42:29;;;;;;;6.37;5.07;;;21.60;99.90;;;;;;4978233;28;20445;-76
2022/08/08 07:45:05;;;;;;;6.00;4.80;;;21.80;99.90;;;;;;4977674;28;20519;-76
2022/08/08 07:47:37;;;;;;;5.17;4.63;;;22.00;99.90;;;;;;4977426;28;21037;-76
2022/08/08 07:50:16;;;;;;;6.50;4.30;;;22.10;99.90;;;;;;4994481;28;20459;-76
2022/08/08 07:52:56;;;;;;;5.57;2.93;;;22.20;99.90;;;;;;4977744;28;20859;-76
2022/08/08 07:55:26;;;;;;;5.30;2.50;;;22.20;99.90;;;;;;4977318;28;20519;-76
2022/08/08 07:58:13;;;;;;;4.40;2.60;;;22.30;99.90;;;;;;4977422;28;20974;-77
2022/08/08 08:00:47;;;;;;;3.53;2.70;;;22.40;99.90;;;;;;4994443;28;20444;-76
2022/08/08 08:03:29;;;;;;;5.33;2.97;;;22.50;99.90;;;;;;4977450;28;20854;-76
2022/08/08 08:06:12;;;;;;;3.17;2.23;;;22.50;99.90;;;;;;4993508;28;20515;-76
2022/08/08 08:08:49;;;;;;;10.20;2.80;;;22.60;99.90;;;;;;4977343;28;20531;-76
2022/08/08 08:11:26;;;;;;;7.80;2.80;;;22.60;99.90;;;;;;4994422;28;20432;-76
2022/08/08 08:14:23;;;;;;;4.10;1.90;;;22.70;99.90;;;;;;4977943;28;20472;-77
2022/08/08 08:16:52;;;;;;;4.23;2.10;;;22.90;99.90;;;;;;4993837;28;20849;-76
2022/08/08 08:19:30;;;;;;;2.93;2.13;;;22.90;99.60;;;;;;4977763;28;20445;-77
2022/08/08 08:22:16;;;;;;;3.70;2.60;;;23.00;99.30;;;;;;4977277;28;20443;-77
2022/08/08 08:25:02;;;;;;;4.47;2.77;;;23.00;99.10;;;;;;4994835;28;20515;-77
2022/08/08 08:27:38;;;;;;;4.00;2.20;;;23.00;98.70;;;;;;4993678;28;20445;-76
2022/08/08 08:30:15;;;;;;;4.70;2.33;;;23.20;98.60;;;;;;4977015;28;20552;-76
2022/08/08 08:32:45;;;;;;;3.67;2.83;;;23.20;98.30;;;;;;4977079;28;20527;-77
2022/08/08 08:35:20;;;;;;;3.47;2.43;;;23.30;97.90;;;;;;4995445;28;20530;-76
2022/08/08 08:38:08;;;;;;;3.30;1.93;;;23.30;97.80;;;;;;4998138;28;20429;-76
2022/08/08 08:40:54;;;;;;;4.20;2.33;;;23.40;97.70;;;;;;4988117;28;20437;-76
2022/08/08 08:43:24;;;;;;;3.03;2.10;;;23.50;97.50;;;;;;4976842;28;20484;-76
2022/08/08 08:46:00;;;;;;;5.30;2.80;;;23.50;97.30;;;;;;4977665;28;20499;-76
2022/08/08 08:48:34;;;;;;;4.23;2.50;;;23.50;97.20;;;;;;4985131;28;20804;-76
2022/08/08 08:51:04;;;;;;;4.17;2.40;;;23.60;97.00;;;;;;4997933;28;20551;-77
2022/08/08 08:53:36;;;;;;;5.23;2.40;;;23.60;96.90;;;;;;4995565;28;20814;-77
2022/08/08 08:56:28;;;;;;;2.93;2.20;;;23.70;96.70;;;;;;4977176;28;20433;-76
2022/08/08 08:59:08;;;;;;;3.77;2.07;;;23.70;96.60;;;;;;4994064;28;20977;-77
2022/08/08 09:01:57;;;;;;;4.03;2.27;;;23.70;96.20;;;;;;4978479;28;20440;-77
2022/08/08 09:04:35;;;;;;;3.53;2.33;;;23.70;96.00;;;;;;4981197;28;20483;-77
2022/08/08 09:07:14;;;;;;;2.73;1.73;;;23.70;95.90;;;;;;4980554;28;20825;-77
2022/08/08 09:09:48;;;;;;;4.63;2.17;;;23.70;95.90;;;;;;4996851;28;20444;-77
2022/08/08 09:12:31;;;;;;;4.27;2.47;;;23.80;95.90;;;;;;4981399;28;20464;-76
2022/08/08 09:15:00;;;;;;;3.67;2.23;;;23.90;95.80;;;;;;4980501;28;20469;-76
2022/08/08 09:17:36;;;;;;;3.40;1.77;;;24.00;95.80;;;;;;4980286;28;20437;-76
2022/08/08 09:20:25;;;;;;;3.20;1.90;;;24.10;95.60;;;;;;4980825;28;20448;-76
2022/08/08 09:23:15;;;;;;;3.63;1.80;;;24.10;95.50;;;;;;4980269;28;20455;-76
2022/08/08 09:25:52;;;;;;;3.47;1.70;;;24.20;95.30;;;;;;4979923;28;20472;-76
2022/08/08 09:28:37;;;;;;;2.43;1.90;;;24.20;95.10;;;;;;4979924;28;20524;-76
2022/08/08 09:31:16;;;;;;;3.53;1.90;;;24.20;95.00;;;;;;4980022;28;20501;-76
2022/08/08 09:33:52;;;;;;;2.60;1.50;;;24.20;94.90;;;;;;4979917;28;20444;-76
2022/08/08 09:36:45;;;;;;;3.80;2.17;;;24.30;94.80;;;;;;4979755;28;20498;-76
2022/08/08 09:39:42;;;;;;;3.43;1.60;;;24.30;94.80;;;;;;4997344;28;20847;-76
2022/08/08 09:42:15;;;;;;;3.50;1.70;;;24.30;94.70;;;;;;4979796;28;20458;-76
2022/08/08 09:45:04;;;;;;;3.37;2.07;;;24.30;94.60;;;;;;4997438;28;20460;-76
2022/08/08 09:47:49;;;;;;;3.97;2.10;;;24.30;94.50;;;;;;4979949;28;20457;-76
2022/08/08 09:50:40;;;;;;;3.33;1.93;;;24.40;94.70;;;;;;4997129;28;20663;-77
2022/08/08 09:53:20;;;;;;;2.70;2.27;;;24.50;94.60;;;;;;4997398;28;20428;-76
2022/08/08 09:56:03;;;;;;;3.33;2.30;;;24.60;94.50;;;;;;4996971;28;20486;-76
2022/08/08 09:58:40;;;;;;;4.00;2.83;;;24.60;94.30;;;;;;4997425;28;20508;-76
2022/08/08 10:01:12;;;;;;;5.60;2.70;;;24.60;94.30;;;;;;4979729;28;20440;-76
2022/08/08 10:04:01;;;;;;;3.63;1.87;;;24.50;94.10;;;;;;4996972;28;20528;-76
2022/08/08 10:06:42;;;;;;;4.73;1.97;;;24.50;94.00;;;;;;4996672;28;20878;-76
2022/08/08 10:09:30;;;;;;;3.33;1.87;;;24.40;93.80;;;;;;4979170;28;20432;-76
2022/08/08 10:12:04;;;;;;;3.17;1.60;;;24.30;93.60;;;;;;4996519;28;20456;-76
2022/08/08 10:15:00;;;;;;;4.57;1.80;;;24.30;93.50;;;;;;4996597;28;20962;-76
2022/08/08 10:17:45;;;;;;;2.77;1.20;;;24.40;93.40;;;;;;4997362;28;20739;-76
2022/08/08 10:20:40;;;;;;;2.87;1.27;;;24.40;93.20;;;;;;4996852;28;20842;-76
2022/08/08 10:23:39;;;;;;;2.27;1.60;;;24.60;92.90;;;;;;4979013;28;20441;-76
2022/08/08 10:26:16;;;;;;;2.27;1.30;;;24.80;92.60;;;;;;4979070;28;20472;-76
2022/08/08 10:29:03;;;;;;;2.40;1.40;;;24.80;92.40;;;;;;4996370;28;20443;-76
2022/08/08 10:34:24;;;;;;;3.70;1.53;;;24.80;92.10;;;;;;4996121;28;20464;-75
2022/08/08 10:36:55;;;;;;;2.73;1.87;;;24.80;92.10;;;;;;4995010;28;21017;-76
2022/08/08 10:39:29;;;;;;;3.70;1.50;;;24.70;92.20;;;;;;4979021;28;20930;-75
2022/08/08 10:42:20;;;;;;;2.40;1.50;;;24.70;92.30;;;;;;4996318;28;20440;-75
2022/08/08 10:45:01;;;;;;;3.20;1.63;;;24.60;92.20;;;;;;4995977;28;20463;-75
2022/08/08 10:47:29;;;;;;;2.77;1.50;;;24.50;92.10;;;;;;4996618;28;20428;-75
2022/08/08 10:50:11;;;;;;;2.30;1.63;;;24.50;92.30;;;;;;4996239;28;20456;-76
2022/08/08 10:52:42;;;;;;;3.57;1.40;;;24.40;92.30;;;;;;4996695;28;20969;-76
2022/08/08 10:55:14;;;;;;;3.30;1.50;;;24.40;92.20;;;;;;4995805;28;20879;-76
2022/08/08 10:58:04;;;;;;;2.93;1.60;;;24.40;92.00;;;;;;4996122;28;20902;-75
2022/08/08 11:00:34;;;;;;;3.50;1.60;;;24.40;92.00;;;;;;4997532;28;20962;-76
2022/08/08 11:03:19;;;;;;;3.23;1.70;;;24.40;92.30;;;;;;4996263;28;20436;-76
2022/08/08 11:06:08;;;;;;;4.03;1.83;;;24.40;92.10;;;;;;4995731;28;20476;-75
2022/08/08 11:08:40;;;;;;;2.83;1.60;;;24.40;92.10;;;;;;4995647;28;20440;-76
2022/08/08 11:11:22;;;;;;;3.97;1.70;;;24.40;92.10;;;;;;4996060;28;20484;-75
2022/08/08 11:14:14;;;;;;;4.70;1.87;;;24.50;92.30;;;;;;4996074;28;20914;-75
2022/08/08 11:16:45;;;;;;;3.40;2.00;;;24.50;92.40;;;;;;4995982;28;20484;-75
2022/08/08 11:19:17;;;;;;;3.03;2.10;;;24.60;92.70;;;;;;4977943;28;20445;-76
2022/08/08 11:21:47;;;;;;;2.60;1.87;;;24.70;92.40;;;;;;4995652;28;20946;-76
2022/08/08 11:24:27;;;;;;;2.70;1.83;;;24.70;92.50;;;;;;4994964;28;20559;-76
2022/08/08 11:27:02;;;;;;;3.40;1.70;;;24.70;92.40;;;;;;4994906;28;20855;-75
2022/08/08 11:29:48;;;;;;;2.70;1.77;;;24.70;92.20;;;;;;4995378;28;20429;-75
2022/08/08 11:32:39;;;;;;;3.43;1.70;;;24.80;92.30;;;;;;4995403;28;20460;-75
2022/08/08 11:35:09;;;;;;;2.60;1.70;;;24.80;92.00;;;;;;4995536;28;20792;-75
2022/08/08 11:37:57;;;;;;;3.60;1.27;;;24.80;91.80;;;;;;4995021;28;20479;-76
2022/08/08 11:40:46;;;;;;;2.50;1.50;;;24.80;91.70;;;;;;4995438;28;20437;-76
2022/08/08 11:43:22;;;;;;;2.87;1.70;;;24.80;91.60;;;;;;4995120;28;20440;-75
2022/08/08 11:45:59;;;;;;;3.13;1.70;;;24.80;91.70;;;;;;5091949;27;20543;-76
2022/08/08 11:48:46;;;;;;;4.80;1.60;;;24.80;91.70;;;;;;5091462;28;20420;-76
2022/08/08 11:51:17;;;;;;;3.33;1.80;;;24.80;91.70;;;;;;5091393;28;20789;-76
2022/08/08 11:54:06;;;;;;;4.30;2.10;;;24.80;91.80;;;;;;5091412;28;20425;-75
2022/08/08 11:56:54;;;;;;;2.73;1.97;;;24.80;91.80;;;;;;5091017;28;20435;-76
2022/08/08 11:59:32;;;;;;;3.10;1.90;;;24.80;91.70;;;;;;5091215;28;20420;-77
2022/08/08 12:02:23;;;;;;;4.67;1.80;;;24.80;91.60;;;;;;5091239;28;20942;-76
2022/08/08 12:05:06;;;;;;;4.13;1.87;;;24.80;91.50;;;;;;5091028;28;20482;-76
2022/08/08 12:07:48;;;;;;;4.00;1.93;;;24.70;91.50;;;;;;5091185;28;20447;-75
2022/08/08 12:10:21;;;;;;;3.60;1.53;;;24.70;91.40;;;;;;5092493;28;20493;-76
2022/08/08 12:12:51;;;;;;;4.20;1.60;;;24.70;91.40;;;;;;5091172;28;20416;-76
2022/08/08 12:15:28;;;;;;;4.00;1.80;;;24.70;91.30;;;;;;5090656;28;20460;-77
2022/08/08 12:17:57;;;;;;;3.33;1.40;;;24.80;91.20;;;;;;5090091;28;20806;-75
2022/08/08 12:20:37;;;;;;;2.67;1.57;;;24.80;91.20;;;;;;5089408;28;20437;-76
2022/08/08 12:23:06;;;;;;;3.30;1.80;;;24.90;91.30;;;;;;5089114;28;20515;-76
2022/08/08 12:25:52;;;;;;;3.10;1.97;;;25.00;91.20;;;;;;5088958;28;21033;-76
2022/08/08 12:28:24;;;;;;;2.50;1.50;;;25.10;91.10;;;;;;5090732;28;20427;-75
2022/08/08 12:30:52;;;;;;;3.10;1.70;;;25.10;91.00;;;;;;5089110;28;20451;-76
2022/08/08 12:33:26;;;;;;;3.97;1.70;;;25.10;90.90;;;;;;5090279;28;20429;-76
2022/08/08 12:36:10;;;;;;;2.43;1.50;;;25.00;90.70;;;;;;5090194;28;20563;-75
2022/08/08 12:38:48;;;;;;;3.43;1.90;;;25.00;90.70;;;;;;5090162;28;20420;-76
2022/08/08 12:41:24;;;;;;;3.20;1.80;;;24.90;90.80;;;;;;5090211;28;20525;-75
2022/08/08 12:44:14;;;;;;;2.83;2.53;;;24.70;90.90;;;;;;5088538;28;20478;-75
2022/08/08 12:47:00;;;;;;;3.30;2.20;;;24.60;91.10;;;;;;5088757;28;20867;-76
2022/08/08 12:49:37;;;;;;;3.67;1.67;;;24.50;91.20;;;;;;5090535;28;20426;-75
2022/08/08 12:52:21;;;;;;;5.33;1.70;;;24.40;91.40;;;;;;5090810;28;20464;-75
2022/08/08 12:55:07;;;;;;;2.97;1.80;;;24.30;91.50;;;;;;5091059;28;20456;-76
2022/08/08 12:57:41;;;;;;;3.47;1.80;;;24.20;91.60;;;;;;5078742;28;20504;-75
2022/08/08 13:00:28;;;;;;;2.93;1.90;;;24.20;91.70;;;;;;5080597;28;20452;-76
2022/08/08 13:03:06;;;;;;;3.70;2.10;;;24.10;91.80;;;;;;5078473;28;20465;-76
2022/08/08 13:05:38;;;;;;;2.20;1.47;;;24.00;91.80;;;;;;5081433;28;20965;-76
2022/08/08 13:08:37;;;;;;;3.67;1.70;;;23.90;91.90;;;;;;5083166;28;20437;-75
2022/08/08 13:11:16;;;;;;;3.90;1.43;;;23.90;91.90;;;;;;5083830;28;20906;-75
2022/08/08 13:14:00;;;;;;;2.80;1.73;;;23.80;91.90;;;;;;5082783;28;20807;-76
2022/08/08 13:16:33;;;;;;;3.50;1.87;;;23.80;92.00;;;;;;5083889;28;20434;-75
2022/08/08 13:19:05;;;;;;;5.40;1.83;;;23.80;92.00;;;;;;5078613;28;20508;-75
2022/08/08 13:21:43;;;;;;;3.13;1.90;;;23.70;92.00;;;;;;5077143;28;20423;-75
2022/08/08 13:24:32;;;;;;;2.77;1.57;;;23.70;91.90;;;;;;5075597;28;20469;-76
2022/08/08 13:27:13;;;;;;;3.77;1.90;;;23.70;91.80;;;;;;5075639;28;20926;-76
2022/08/08 13:29:50;;;;;;;3.83;1.50;;;23.70;91.80;;;;;;5075101;28;20531;-75
2022/08/08 13:32:20;;;;;;;2.70;1.63;;;23.70;91.70;;;;;;5074435;28;20433;-76
2022/08/08 13:34:58;;;;;;;5.47;1.47;;;23.70;91.60;;;;;;5076071;28;20449;-76
2022/08/08 13:37:28;;;;;;;2.57;1.20;;;23.80;91.60;;;;;;5075019;28;20472;-79
2022/08/08 13:40:17;;;;;;;3.93;1.70;;;23.80;91.60;;;;;;5076187;28;20539;-77
2022/08/08 13:42:55;;;;;;;3.13;1.27;;;23.90;91.50;;;;;;5075190;28;20500;-76
2022/08/08 13:45:25;;;;;;;2.57;1.77;;;23.90;91.40;;;;;;5075683;28;20477;-76
2022/08/08 13:47:58;;;;;;;4.00;1.33;;;24.00;91.30;;;;;;5074516;28;20434;-76
2022/08/08 13:50:26;;;;;;;3.03;1.00;;;24.00;91.20;;;;;;5076794;28;20574;-76
2022/08/08 13:53:27;;;;;;;2.33;1.20;;;24.00;91.10;;;;;;5077130;28;20439;-77
2022/08/08 13:56:05;;;;;;;3.70;1.30;;;24.00;90.80;;;;;;5075492;28;21028;-76
2022/08/08 13:58:49;;;;;;;2.70;1.30;;;24.00;90.90;;;;;;5075321;28;20513;-76
2022/08/08 14:01:29;;;;;;;2.37;1.33;;;24.00;90.80;;;;;;5075447;28;20421;-76
2022/08/08 14:04:21;;;;;;;3.17;1.80;;;24.00;90.80;;;;;;5075351;28;20433;-76
2022/08/08 14:06:57;;;;;;;3.50;1.40;;;24.10;91.00;;;;;;5073783;28;20465;-76
2022/08/08 14:09:50;;;;;;;2.80;1.70;;;24.20;90.90;;;;;;5074511;28;20425;-77
2022/08/08 14:12:39;;;;;;;3.13;1.43;;;24.20;90.70;;;;;;5075039;28;20429;-76
2022/08/08 14:15:24;;;;;;;2.30;1.37;;;24.30;90.60;;;;;;5073546;28;20529;-76
2022/08/08 14:18:07;;;;;;;2.77;1.10;;;24.30;90.40;;;;;;5075166;28;20886;-76
2022/08/08 14:21:02;;;;;;;2.27;1.20;;;24.40;90.40;;;;;;5075028;28;20782;-76